createdAt,value
2023-01-04T00:00:34.713Z,0.00
2023-01-04T00:01:34.570Z,0.00
2023-01-04T00:02:34.604Z,0.00
2023-01-04T00:03:34.616Z,0.00
2023-01-04T00:04:34.393Z,0.00
2023-01-04T00:05:34.334Z,0.00
2023-01-04T00:06:34.279Z,0.00
2023-01-04T00:07:34.216Z,0.00
2023-01-04T00:08:34.160Z,0.00
2023-01-04T00:09:34.103Z,0.00
2023-01-04T00:10:34.036Z,0.00
2023-01-04T00:11:33.989Z,0.00
2023-01-04T00:12:33.925Z,0.00
2023-01-04T00:13:33.865Z,0.00
2023-01-04T00:14:33.807Z,0.00
2023-01-04T00:15:33.796Z,0.00
2023-01-04T00:16:33.778Z,0.00
2023-01-04T00:17:33.633Z,0.00
2023-01-04T00:18:33.569Z,0.00
2023-01-04T00:19:33.512Z,0.00
2023-01-04T00:20:33.460Z,0.00
2023-01-04T00:21:33.394Z,0.00
2023-01-04T00:22:33.340Z,0.00
2023-01-04T00:23:33.285Z,0.00
2023-01-04T00:24:33.224Z,0.00
2023-01-04T00:25:33.164Z,0.00
2023-01-04T00:26:33.114Z,0.00
2023-01-04T00:27:33.044Z,0.00
2023-01-04T00:28:32.985Z,0.00
2023-01-04T00:29:32.927Z,0.00
2023-01-04T00:30:32.873Z,0.00
2023-01-04T00:31:32.875Z,0.00
2023-01-04T00:32:32.758Z,0.00
2023-01-04T00:33:32.694Z,0.00
2023-01-04T00:34:32.634Z,0.00
2023-01-04T00:35:45.910Z,0.00
2023-01-04T00:36:32.533Z,0.00
2023-01-04T00:37:32.522Z,0.00
2023-01-04T00:38:32.399Z,0.00
2023-01-04T00:39:32.343Z,0.00
2023-01-04T00:40:32.288Z,0.00
2023-01-04T00:41:57.463Z,0.00
2023-01-04T00:42:32.166Z,0.00
2023-01-04T00:43:32.117Z,0.00
2023-01-04T00:44:32.066Z,0.00
2023-01-04T00:45:31.995Z,0.00
2023-01-04T00:46:32.001Z,0.00
2023-01-04T00:47:31.885Z,0.00
2023-01-04T00:48:31.821Z,0.00
2023-01-04T00:49:31.761Z,0.00
2023-01-04T00:50:31.709Z,0.00
2023-01-04T00:51:31.656Z,0.00
2023-01-04T00:52:31.593Z,0.00
2023-01-04T00:53:31.527Z,0.00
2023-01-04T00:54:31.484Z,0.00
2023-01-04T00:55:31.417Z,0.00
2023-01-04T00:56:31.349Z,0.00
2023-01-04T00:57:31.298Z,0.00
2023-01-04T00:58:31.240Z,0.00
2023-01-04T00:59:31.178Z,0.00
2023-01-04T01:00:31.115Z,0.00
2023-01-04T01:01:31.222Z,0.00
2023-01-04T01:02:31.147Z,0.00
2023-01-04T01:03:36.536Z,0.00
2023-01-04T01:04:30.884Z,0.00
2023-01-04T01:05:30.836Z,0.00
2023-01-04T01:06:30.768Z,0.00
2023-01-04T01:07:30.715Z,0.00
2023-01-04T01:08:30.661Z,0.00
2023-01-04T01:09:30.593Z,0.00
2023-01-04T01:10:30.536Z,0.00
2023-01-04T01:11:30.505Z,0.00
2023-01-04T01:12:30.422Z,0.00
2023-01-04T01:13:30.360Z,0.00
2023-01-04T01:14:30.300Z,0.00
2023-01-04T01:15:30.294Z,0.00
2023-01-04T01:16:55.369Z,0.00
2023-01-04T01:17:30.128Z,0.00
2023-01-04T01:18:30.069Z,0.00
2023-01-04T01:19:30.007Z,0.00
2023-01-04T01:20:29.952Z,0.00
2023-01-04T01:21:29.893Z,0.00
2023-01-04T01:22:29.834Z,0.00
2023-01-04T01:23:29.776Z,0.00
2023-01-04T01:24:29.761Z,0.00
2023-01-04T01:25:29.659Z,0.00
2023-01-04T01:26:29.597Z,0.00
2023-01-04T01:27:29.546Z,0.00
2023-01-04T01:28:29.480Z,0.00
2023-01-04T01:29:29.420Z,0.00
2023-01-04T01:30:29.375Z,0.00
2023-01-04T01:31:29.364Z,0.00
2023-01-04T01:32:29.242Z,0.00
2023-01-04T01:33:29.186Z,0.00
2023-01-04T01:34:29.132Z,0.00
2023-01-04T01:35:29.096Z,0.00
2023-01-04T01:36:29.009Z,0.00
2023-01-04T01:37:28.960Z,0.00
2023-01-04T01:38:28.893Z,0.00
2023-01-04T01:39:28.839Z,0.00
2023-01-04T01:40:28.790Z,0.00
2023-01-04T01:41:28.721Z,0.00
2023-01-04T01:42:28.660Z,0.00
2023-01-04T01:43:28.601Z,0.00
2023-01-04T01:44:28.549Z,0.00
2023-01-04T01:45:28.491Z,0.00
2023-01-04T01:46:28.449Z,0.00
2023-01-04T01:47:28.372Z,0.00
2023-01-04T01:48:28.309Z,0.00
2023-01-04T01:49:28.257Z,0.00
2023-01-04T01:50:28.192Z,0.00
2023-01-04T01:51:28.138Z,0.00
2023-01-04T01:52:28.071Z,0.00
2023-01-04T01:53:28.019Z,0.00
2023-01-04T01:54:27.961Z,0.00
2023-01-04T01:55:27.899Z,0.00
2023-01-04T01:56:27.864Z,0.00
2023-01-04T01:57:27.787Z,0.00
2023-01-04T01:58:27.723Z,0.00
2023-01-04T01:59:27.710Z,0.00
2023-01-04T02:00:27.610Z,0.00
2023-01-04T02:01:27.783Z,0.00
2023-01-04T02:02:27.776Z,0.00
2023-01-04T02:03:27.673Z,0.00
2023-01-04T02:04:27.388Z,0.00
2023-01-04T02:05:27.316Z,0.00
2023-01-04T02:06:27.255Z,0.00
2023-01-04T02:07:27.201Z,0.00
2023-01-04T02:08:27.165Z,0.00
2023-01-04T02:09:27.083Z,0.00
2023-01-04T02:10:27.018Z,0.00
2023-01-04T02:11:26.968Z,0.00
2023-01-04T02:12:26.919Z,0.00
2023-01-04T02:13:26.851Z,0.00
2023-01-04T02:14:26.790Z,0.00
2023-01-04T02:15:26.727Z,0.00
2023-01-04T02:16:26.723Z,0.00
2023-01-04T02:17:26.606Z,0.00
2023-01-04T02:18:26.550Z,0.00
2023-01-04T02:19:26.494Z,0.00
2023-01-04T02:20:26.446Z,0.00
2023-01-04T02:21:26.373Z,0.00
2023-01-04T02:22:26.315Z,0.00
2023-01-04T02:23:26.264Z,0.00
2023-01-04T02:24:26.198Z,0.00
2023-01-04T02:25:26.140Z,0.00
2023-01-04T02:26:26.092Z,0.00
2023-01-04T02:27:26.021Z,0.00
2023-01-04T02:28:25.968Z,0.00
2023-01-04T02:29:25.913Z,0.00
2023-01-04T02:30:25.869Z,0.00
2023-01-04T02:31:25.846Z,0.00
2023-01-04T02:32:25.726Z,0.00
2023-01-04T02:33:25.673Z,0.00
2023-01-04T02:34:25.613Z,0.00
2023-01-04T02:35:25.559Z,0.00
2023-01-04T02:36:25.498Z,0.00
2023-01-04T02:37:25.451Z,0.00
2023-01-04T02:38:25.381Z,0.00
2023-01-04T02:39:25.319Z,0.00
2023-01-04T02:40:25.312Z,0.00
2023-01-04T02:41:25.202Z,0.00
2023-01-04T02:42:25.183Z,0.00
2023-01-04T02:43:25.089Z,0.00
2023-01-04T02:44:25.033Z,0.00
2023-01-04T02:45:24.967Z,0.00
2023-01-04T02:46:24.955Z,0.00
2023-01-04T02:47:24.848Z,0.00
2023-01-04T02:48:24.797Z,0.00
2023-01-04T02:49:24.730Z,0.00
2023-01-04T02:50:24.676Z,0.00
2023-01-04T02:51:24.612Z,0.00
2023-01-04T02:52:24.549Z,0.00
2023-01-04T02:53:24.527Z,0.00
2023-01-04T02:54:24.434Z,0.00
2023-01-04T02:55:24.381Z,0.00
2023-01-04T02:56:24.325Z,0.00
2023-01-04T02:57:24.261Z,0.00
2023-01-04T02:58:24.208Z,0.00
2023-01-04T02:59:24.153Z,0.00
2023-01-04T03:00:24.118Z,0.00
2023-01-04T03:01:24.115Z,0.00
2023-01-04T03:02:24.211Z,0.00
2023-01-04T03:03:24.183Z,0.00
2023-01-04T03:04:23.848Z,0.00
2023-01-04T03:05:23.797Z,0.00
2023-01-04T03:06:23.735Z,0.00
2023-01-04T03:07:23.681Z,0.00
2023-01-04T03:08:23.696Z,0.00
2023-01-04T03:09:23.559Z,0.00
2023-01-04T03:10:23.500Z,0.00
2023-01-04T03:11:23.437Z,0.00
2023-01-04T03:12:23.384Z,0.00
2023-01-04T03:13:23.323Z,0.00
2023-01-04T03:14:32.390Z,0.00
2023-01-04T03:15:23.207Z,0.00
2023-01-04T03:16:23.263Z,0.00
2023-01-04T03:17:23.088Z,0.00
2023-01-04T03:18:23.031Z,0.00
2023-01-04T03:19:22.975Z,0.00
2023-01-04T03:20:22.914Z,0.00
2023-01-04T03:21:22.855Z,0.00
2023-01-04T03:22:22.795Z,0.00
2023-01-04T03:23:22.740Z,0.00
2023-01-04T03:24:22.671Z,0.00
2023-01-04T03:25:22.620Z,0.00
2023-01-04T03:26:22.567Z,0.00
2023-01-04T03:27:22.506Z,0.00
2023-01-04T03:28:22.437Z,0.00
2023-01-04T03:29:22.384Z,0.00
2023-01-04T03:30:22.334Z,0.00
2023-01-04T03:31:22.333Z,0.00
2023-01-04T03:32:22.213Z,0.00
2023-01-04T03:33:22.145Z,0.00
2023-01-04T03:34:22.086Z,0.00
2023-01-04T03:35:22.029Z,0.00
2023-01-04T03:36:21.968Z,0.00
2023-01-04T03:37:21.916Z,0.00
2023-01-04T03:38:21.857Z,0.00
2023-01-04T03:39:21.801Z,0.00
2023-01-04T03:40:21.735Z,0.00
2023-01-04T03:41:21.684Z,0.00
2023-01-04T03:42:21.626Z,0.00
2023-01-04T03:43:21.560Z,0.00
2023-01-04T03:44:21.505Z,0.00
2023-01-04T03:45:21.446Z,0.00
2023-01-04T03:46:21.424Z,0.00
2023-01-04T03:47:21.331Z,0.00
2023-01-04T03:48:21.280Z,0.00
2023-01-04T03:49:21.218Z,0.00
2023-01-04T03:50:21.144Z,0.00
2023-01-04T03:51:21.093Z,0.00
2023-01-04T03:52:21.029Z,0.00
2023-01-04T03:53:20.973Z,0.00
2023-01-04T03:54:20.909Z,0.00
2023-01-04T03:55:20.857Z,0.00
2023-01-04T03:56:20.789Z,0.00
2023-01-04T03:57:20.740Z,0.00
2023-01-04T03:58:20.679Z,0.00
2023-01-04T03:59:20.615Z,0.00
2023-01-04T04:00:20.586Z,0.00
2023-01-04T04:01:20.736Z,0.00
2023-01-04T04:02:20.501Z,0.00
2023-01-04T04:03:20.389Z,0.00
2023-01-04T04:04:20.375Z,0.00
2023-01-04T04:05:20.265Z,0.00
2023-01-04T04:06:20.209Z,0.00
2023-01-04T04:07:20.145Z,0.00
2023-01-04T04:08:20.090Z,0.00
2023-01-04T04:09:20.036Z,0.00
2023-01-04T04:10:19.965Z,0.00
2023-01-04T04:11:19.913Z,0.00
2023-01-04T04:12:19.872Z,0.00
2023-01-04T04:13:19.801Z,0.00
2023-01-04T04:14:19.731Z,0.00
2023-01-04T04:15:19.680Z,0.00
2023-01-04T04:16:19.710Z,0.00
2023-01-04T04:17:19.564Z,0.00
2023-01-04T04:18:19.496Z,0.00
2023-01-04T04:19:19.446Z,0.00
2023-01-04T04:20:19.384Z,0.00
2023-01-04T04:21:19.317Z,0.00
2023-01-04T04:22:19.270Z,0.00
2023-01-04T04:23:19.208Z,0.00
2023-01-04T04:24:19.150Z,0.00
2023-01-04T04:25:19.083Z,0.00
2023-01-04T04:26:19.039Z,0.00
2023-01-04T04:27:18.970Z,0.00
2023-01-04T04:28:18.911Z,0.00
2023-01-04T04:29:18.853Z,0.00
2023-01-04T04:30:18.788Z,0.00
2023-01-04T04:31:18.803Z,0.00
2023-01-04T04:32:18.676Z,0.00
2023-01-04T04:33:18.613Z,0.00
2023-01-04T04:34:18.553Z,0.00
2023-01-04T04:35:18.499Z,0.00
2023-01-04T04:36:18.445Z,0.00
2023-01-04T04:37:18.382Z,0.00
2023-01-04T04:38:18.324Z,0.00
2023-01-04T04:39:18.266Z,0.00
2023-01-04T04:40:18.202Z,0.00
2023-01-04T04:41:18.165Z,0.00
2023-01-04T04:42:18.092Z,0.00
2023-01-04T04:43:18.026Z,0.00
2023-01-04T04:44:17.975Z,0.00
2023-01-04T04:45:17.907Z,0.00
2023-01-04T04:46:17.886Z,0.00
2023-01-04T04:47:17.789Z,0.00
2023-01-04T04:48:17.729Z,0.00
2023-01-04T04:49:17.689Z,0.00
2023-01-04T04:50:17.614Z,0.00
2023-01-04T04:51:17.551Z,0.00
2023-01-04T04:52:17.498Z,0.00
2023-01-04T04:53:17.438Z,0.00
2023-01-04T04:54:17.401Z,0.00
2023-01-04T04:55:17.318Z,0.00
2023-01-04T04:56:17.263Z,0.00
2023-01-04T04:57:17.204Z,0.00
2023-01-04T04:58:17.147Z,0.00
2023-01-04T04:59:17.091Z,0.00
2023-01-04T05:00:17.023Z,0.00
2023-01-04T05:01:17.116Z,0.00
2023-01-04T05:02:17.128Z,0.00
2023-01-04T05:03:16.892Z,0.00
2023-01-04T05:04:17.208Z,0.00
2023-01-04T05:05:16.725Z,0.00
2023-01-04T05:06:16.682Z,0.00
2023-01-04T05:07:16.609Z,0.00
2023-01-04T05:08:16.576Z,0.00
2023-01-04T05:09:16.494Z,0.00
2023-01-04T05:10:16.435Z,0.00
2023-01-04T05:11:16.377Z,0.00
2023-01-04T05:12:16.314Z,0.00
2023-01-04T05:13:16.256Z,0.00
2023-01-04T05:14:16.198Z,0.00
2023-01-04T05:15:16.144Z,0.00
2023-01-04T05:16:16.129Z,0.00
2023-01-04T05:17:16.018Z,0.00
2023-01-04T05:18:15.962Z,0.00
2023-01-04T05:19:15.904Z,0.00
2023-01-04T05:20:15.856Z,0.00
2023-01-04T05:21:20.087Z,0.00
2023-01-04T05:22:15.730Z,0.00
2023-01-04T05:23:15.662Z,0.00
2023-01-04T05:24:15.617Z,0.00
2023-01-04T05:25:15.574Z,0.00
2023-01-04T05:26:15.488Z,0.00
2023-01-04T05:27:15.430Z,0.00
2023-01-04T05:28:15.376Z,0.00
2023-01-04T05:29:15.320Z,0.00
2023-01-04T05:30:15.256Z,0.00
2023-01-04T05:31:15.216Z,0.00
2023-01-04T05:32:15.226Z,0.00
2023-01-04T05:33:15.079Z,0.00
2023-01-04T05:34:20.238Z,0.00
2023-01-04T05:35:14.962Z,0.00
2023-01-04T05:36:14.932Z,0.00
2023-01-04T05:37:14.852Z,0.00
2023-01-04T05:38:14.782Z,0.00
2023-01-04T05:39:14.726Z,0.00
2023-01-04T05:40:14.677Z,0.00
2023-01-04T05:41:14.604Z,0.00
2023-01-04T05:42:14.549Z,0.00
2023-01-04T05:43:14.491Z,0.00
2023-01-04T05:44:14.430Z,0.00
2023-01-04T05:45:14.371Z,0.00
2023-01-04T05:46:14.356Z,0.00
2023-01-04T05:47:15.254Z,0.00
2023-01-04T05:48:14.213Z,0.00
2023-01-04T05:49:14.128Z,0.00
2023-01-04T05:50:14.069Z,0.00
2023-01-04T05:51:14.017Z,0.00
2023-01-04T05:52:13.960Z,0.00
2023-01-04T05:53:13.892Z,0.00
2023-01-04T05:54:19.349Z,0.00
2023-01-04T05:55:13.776Z,0.00
2023-01-04T05:56:13.740Z,0.00
2023-01-04T05:57:13.657Z,0.00
2023-01-04T05:58:13.600Z,0.00
2023-01-04T05:59:13.543Z,0.00
2023-01-04T06:00:13.506Z,0.00
2023-01-04T06:01:13.473Z,0.00
2023-01-04T06:02:13.497Z,0.00
2023-01-04T06:03:13.475Z,0.00
2023-01-04T06:04:13.337Z,0.00
2023-01-04T06:05:13.192Z,0.00
2023-01-04T06:06:13.131Z,0.00
2023-01-04T06:07:13.072Z,0.00
2023-01-04T06:08:13.012Z,0.00
2023-01-04T06:09:12.952Z,0.00
2023-01-04T06:10:12.899Z,0.00
2023-01-04T06:11:12.839Z,0.00
2023-01-04T06:12:12.783Z,0.00
2023-01-04T06:13:12.715Z,0.00
2023-01-04T06:14:12.663Z,0.00
2023-01-04T06:15:12.600Z,0.00
2023-01-04T06:16:12.547Z,0.00
2023-01-04T06:17:12.553Z,0.00
2023-01-04T06:18:13.900Z,0.00
2023-01-04T06:19:12.366Z,0.00
2023-01-04T06:20:12.297Z,0.00
2023-01-04T06:21:12.246Z,0.00
2023-01-04T06:22:12.194Z,0.00
2023-01-04T06:23:12.122Z,0.00
2023-01-04T06:24:12.073Z,0.00
2023-01-04T06:25:12.009Z,0.00
2023-01-04T06:26:11.950Z,0.00
2023-01-04T06:27:11.898Z,0.00
2023-01-04T06:28:11.849Z,0.00
2023-01-04T06:29:11.767Z,0.00
2023-01-04T06:30:11.721Z,0.00
2023-01-04T06:31:11.689Z,0.00
2023-01-04T06:32:11.594Z,0.00
2023-01-04T06:33:11.534Z,0.00
2023-01-04T06:34:11.471Z,0.00
2023-01-04T06:35:11.429Z,0.00
2023-01-04T06:36:19.595Z,0.00
2023-01-04T06:37:11.299Z,0.00
2023-01-04T06:38:11.235Z,0.00
2023-01-04T06:39:11.176Z,0.00
2023-01-04T06:40:11.150Z,0.00
2023-01-04T06:41:11.056Z,0.00
2023-01-04T06:42:11.009Z,0.00
2023-01-04T06:43:10.963Z,0.00
2023-01-04T06:44:10.908Z,0.00
2023-01-04T06:45:10.828Z,0.00
2023-01-04T06:46:10.825Z,0.00
2023-01-04T06:47:10.706Z,0.00
2023-01-04T06:48:10.643Z,0.00
2023-01-04T06:49:10.591Z,0.00
2023-01-04T06:50:10.531Z,0.00
2023-01-04T06:51:10.472Z,0.00
2023-01-04T06:52:10.422Z,0.00
2023-01-04T06:53:10.352Z,0.00
2023-01-04T06:54:10.295Z,0.00
2023-01-04T06:55:10.235Z,0.00
2023-01-04T06:56:10.188Z,0.00
2023-01-04T06:57:10.120Z,0.00
2023-01-04T06:58:10.069Z,0.00
2023-01-04T06:59:10.002Z,0.00
2023-01-04T07:00:09.945Z,0.00
2023-01-04T07:01:10.063Z,0.00
2023-01-04T07:02:09.990Z,0.00
2023-01-04T07:03:13.510Z,0.00
2023-01-04T07:04:09.740Z,0.00
2023-01-04T07:05:09.640Z,0.00
2023-01-04T07:06:09.580Z,0.00
2023-01-04T07:07:09.525Z,0.00
2023-01-04T07:08:09.466Z,0.00
2023-01-04T07:09:09.405Z,0.00
2023-01-04T07:10:10.073Z,0.00
2023-01-04T07:11:09.291Z,0.00
2023-01-04T07:12:09.231Z,0.00
2023-01-04T07:13:09.167Z,0.00
2023-01-04T07:14:09.116Z,0.00
2023-01-04T07:15:38.423Z,0.00
2023-01-04T07:16:09.062Z,0.00
2023-01-04T07:17:08.945Z,0.00
2023-01-04T07:18:08.879Z,0.00
2023-01-04T07:19:08.824Z,0.00
2023-01-04T07:20:08.758Z,0.00
2023-01-04T07:21:08.696Z,0.00
2023-01-04T07:22:08.641Z,0.00
2023-01-04T07:23:08.573Z,0.00
2023-01-04T07:24:08.518Z,0.00
2023-01-04T07:25:08.460Z,0.00
2023-01-04T07:26:08.401Z,0.00
2023-01-04T07:27:08.351Z,0.00
2023-01-04T07:28:08.282Z,0.00
2023-01-04T07:29:08.228Z,0.00
2023-01-04T07:30:08.174Z,0.00
2023-01-04T07:31:08.259Z,0.00
2023-01-04T07:32:13.641Z,0.00
2023-01-04T07:33:07.987Z,0.00
2023-01-04T07:34:07.930Z,0.00
2023-01-04T07:35:07.868Z,0.00
2023-01-04T07:36:07.813Z,0.00
2023-01-04T07:37:07.752Z,0.00
2023-01-04T07:38:07.689Z,0.00
2023-01-04T07:39:07.628Z,0.00
2023-01-04T07:40:07.571Z,0.00
2023-01-04T07:41:07.525Z,0.00
2023-01-04T07:42:07.453Z,0.00
2023-01-04T07:43:07.395Z,0.00
2023-01-04T07:44:07.338Z,0.00
2023-01-04T07:45:07.283Z,0.00
2023-01-04T07:46:07.266Z,0.00
2023-01-04T07:47:07.159Z,0.00
2023-01-04T07:48:07.101Z,0.00
2023-01-04T07:49:11.620Z,0.00
2023-01-04T07:50:06.994Z,0.00
2023-01-04T07:51:06.920Z,0.00
2023-01-04T07:52:06.872Z,0.00
2023-01-04T07:53:06.802Z,4.00
2023-01-04T07:54:06.745Z,4.00
2023-01-04T07:55:06.690Z,4.00
2023-01-04T07:56:06.635Z,4.00
2023-01-04T07:57:06.564Z,4.00
2023-01-04T07:58:06.513Z,4.00
2023-01-04T07:59:06.452Z,4.00
2023-01-04T08:00:06.392Z,4.00
2023-01-04T08:01:06.341Z,4.00
2023-01-04T08:02:06.420Z,4.00
2023-01-04T08:03:06.312Z,4.00
2023-01-04T08:04:06.286Z,4.00
2023-01-04T08:05:06.159Z,4.00
2023-01-04T08:06:06.034Z,4.00
2023-01-04T08:07:05.975Z,4.00
2023-01-04T08:08:05.916Z,4.00
2023-01-04T08:09:05.861Z,4.00
2023-01-04T08:10:05.802Z,0.00
2023-01-04T08:11:05.739Z,0.00
2023-01-04T08:12:05.686Z,0.00
2023-01-04T08:13:05.625Z,0.00
2023-01-04T08:14:05.566Z,4.00
2023-01-04T08:15:05.504Z,4.00
2023-01-04T08:16:05.452Z,4.00
2023-01-04T08:17:05.382Z,4.00
2023-01-04T08:18:06.146Z,4.00
2023-01-04T08:19:05.271Z,4.00
2023-01-04T08:20:05.214Z,4.00
2023-01-04T08:21:05.151Z,4.00
2023-01-04T08:22:05.086Z,4.00
2023-01-04T08:23:05.035Z,4.00
2023-01-04T08:24:04.971Z,4.00
2023-01-04T08:25:04.923Z,4.00
2023-01-04T08:26:04.850Z,4.00
2023-01-04T08:27:04.791Z,4.00
2023-01-04T08:28:04.742Z,4.00
2023-01-04T08:29:04.674Z,4.00
2023-01-04T08:30:04.621Z,4.00
2023-01-04T08:31:04.584Z,4.00
2023-01-04T08:32:04.495Z,4.00
2023-01-04T08:33:04.443Z,4.00
2023-01-04T08:34:04.396Z,8.00
2023-01-04T08:35:04.320Z,4.00
2023-01-04T08:36:04.268Z,4.00
2023-01-04T08:37:04.213Z,4.00
2023-01-04T08:38:36.942Z,4.00
2023-01-04T08:39:04.082Z,4.00
2023-01-04T08:40:04.047Z,4.00
2023-01-04T08:41:16.855Z,4.00
2023-01-04T08:42:18.824Z,4.00
2023-01-04T08:43:03.852Z,4.00
2023-01-04T08:44:03.787Z,8.00
2023-01-04T08:45:03.724Z,8.00
2023-01-04T08:46:03.715Z,8.00
2023-01-04T08:47:03.728Z,8.00
2023-01-04T08:48:03.548Z,8.00
2023-01-04T08:49:03.519Z,4.00
2023-01-04T08:50:09.868Z,8.00
2023-01-04T08:51:03.386Z,8.00
2023-01-04T08:52:03.331Z,8.00
2023-01-04T08:53:03.255Z,8.00
2023-01-04T08:54:03.197Z,8.00
2023-01-04T08:55:08.305Z,12.00
2023-01-04T08:56:03.078Z,12.00
2023-01-04T08:57:03.021Z,12.00
2023-01-04T08:58:02.955Z,12.00
2023-01-04T08:59:02.901Z,12.00
2023-01-04T09:00:02.836Z,16.00
2023-01-04T09:01:02.784Z,16.00
2023-01-04T09:02:05.577Z,20.00
2023-01-04T09:03:02.900Z,20.00
2023-01-04T09:04:02.679Z,24.00
2023-01-04T09:05:02.746Z,24.00
2023-01-04T09:06:02.487Z,20.00
2023-01-04T09:07:02.423Z,16.00
2023-01-04T09:08:02.374Z,16.00
2023-01-04T09:09:02.307Z,12.00
2023-01-04T09:10:02.245Z,16.00
2023-01-04T09:11:02.195Z,12.00
2023-01-04T09:12:02.131Z,8.00
2023-01-04T09:13:02.076Z,12.00
2023-01-04T09:14:07.848Z,8.00
2023-01-04T09:15:01.954Z,12.00
2023-01-04T09:16:01.934Z,8.00
2023-01-04T09:17:01.831Z,12.00
2023-01-04T09:19:01.721Z,8.00
2023-01-04T09:20:01.667Z,8.00
2023-01-04T09:21:01.621Z,8.00
2023-01-04T09:22:01.604Z,8.00
2023-01-04T09:23:01.480Z,8.00
2023-01-04T09:24:01.430Z,8.00
2023-01-04T09:25:01.360Z,8.00
2023-01-04T09:26:07.349Z,12.00
2023-01-04T09:27:01.247Z,12.00
2023-01-04T09:28:01.182Z,8.00
2023-01-04T09:29:01.146Z,8.00
2023-01-04T09:30:01.071Z,12.00
2023-01-04T09:31:01.050Z,12.00
2023-01-04T09:32:01.077Z,12.00
2023-01-04T09:33:00.902Z,12.00
2023-01-04T09:34:17.649Z,12.00
2023-01-04T09:35:00.773Z,8.00
2023-01-04T09:36:00.721Z,8.00
2023-01-04T09:37:00.673Z,8.00
2023-01-04T09:38:00.594Z,12.00
2023-01-04T09:39:00.544Z,12.00
2023-01-04T09:40:00.515Z,12.00
2023-01-04T09:41:00.432Z,12.00
2023-01-04T09:42:00.403Z,12.00
2023-01-04T09:43:21.067Z,12.00
2023-01-04T09:44:00.237Z,12.00
2023-01-04T09:45:28.563Z,12.00
2023-01-04T09:46:00.131Z,8.00
2023-01-04T09:47:00.150Z,8.00
2023-01-04T09:47:59.998Z,12.00
2023-01-04T09:48:59.947Z,12.00
2023-01-04T09:49:59.896Z,12.00
2023-01-04T09:50:59.832Z,16.00
2023-01-04T09:51:59.767Z,16.00
2023-01-04T09:52:59.711Z,12.00
2023-01-04T09:53:59.648Z,12.00
2023-01-04T09:55:02.994Z,12.00
2023-01-04T09:55:59.537Z,12.00
2023-01-04T09:56:59.478Z,12.00
2023-01-04T09:57:59.458Z,12.00
2023-01-04T09:58:59.355Z,12.00
2023-01-04T09:59:59.293Z,16.00
2023-01-04T10:00:59.249Z,8.00
2023-01-04T10:01:59.448Z,8.00
2023-01-04T10:02:59.222Z,8.00
2023-01-04T10:03:59.062Z,12.00
2023-01-04T10:04:58.993Z,12.00
2023-01-04T10:05:58.938Z,12.00
2023-01-04T10:07:04.667Z,12.00
2023-01-04T10:07:58.835Z,12.00
2023-01-04T10:08:58.757Z,16.00
2023-01-04T10:09:58.697Z,16.00
2023-01-04T10:10:58.643Z,16.00
2023-01-04T10:11:58.608Z,16.00
2023-01-04T10:13:00.174Z,20.00
2023-01-04T10:13:58.475Z,20.00
2023-01-04T10:14:58.404Z,24.00
2023-01-04T10:15:58.394Z,20.00
2023-01-04T10:17:12.830Z,20.00
2023-01-04T10:19:17.647Z,20.00
2023-01-04T10:19:23.624Z,20.00
2023-01-04T10:21:58.040Z,20.00
2023-01-04T10:22:57.937Z,20.00
2023-01-04T10:23:57.877Z,20.00
2023-01-04T10:24:57.834Z,20.00
2023-01-04T10:25:57.780Z,16.00
2023-01-04T10:26:57.694Z,16.00
2023-01-04T10:27:57.639Z,12.00
2023-01-04T10:28:57.585Z,16.00
2023-01-04T10:29:57.616Z,12.00
2023-01-04T10:30:57.458Z,16.00
2023-01-04T10:31:57.437Z,16.00
2023-01-04T10:32:57.339Z,12.00
2023-01-04T10:33:57.286Z,16.00
2023-01-04T10:34:57.278Z,16.00
2023-01-04T10:35:57.165Z,16.00
2023-01-04T10:36:57.127Z,12.00
2023-01-04T10:37:57.044Z,12.00
2023-01-04T10:38:56.993Z,12.00
2023-01-04T10:39:56.924Z,12.00
2023-01-04T10:40:56.873Z,12.00
2023-01-04T10:41:56.806Z,12.00
2023-01-04T10:42:56.759Z,16.00
2023-01-04T10:44:11.233Z,12.00
2023-01-04T10:44:56.634Z,16.00
2023-01-04T10:45:56.579Z,16.00
2023-01-04T10:46:56.564Z,16.00
2023-01-04T10:47:56.457Z,16.00
2023-01-04T10:48:56.396Z,16.00
2023-01-04T10:49:56.337Z,16.00
2023-01-04T10:50:56.281Z,20.00
2023-01-04T10:51:56.221Z,24.00
2023-01-04T10:52:56.175Z,20.00
2023-01-04T10:53:56.097Z,20.00
2023-01-04T10:54:56.045Z,20.00
2023-01-04T10:56:26.119Z,28.00
2023-01-04T10:56:55.934Z,28.00
2023-01-04T10:57:55.869Z,28.00
2023-01-04T10:58:55.813Z,24.00
2023-01-04T10:59:55.755Z,24.00
2023-01-04T11:00:55.727Z,28.00
2023-01-04T11:01:55.822Z,32.00
2023-01-04T11:02:55.783Z,40.00
2023-01-04T11:03:55.507Z,44.00
2023-01-04T11:04:55.455Z,48.00
2023-01-04T11:05:55.394Z,52.00
2023-01-04T11:06:55.338Z,72.00
2023-01-04T11:07:55.274Z,92.00
2023-01-04T11:08:55.216Z,52.00
2023-01-04T11:09:55.157Z,48.00
2023-01-04T11:10:55.097Z,64.00
2023-01-04T11:11:55.036Z,92.00
2023-01-04T11:12:54.981Z,64.00
2023-01-04T11:13:54.920Z,80.00
2023-01-04T11:14:54.873Z,108.00
2023-01-04T11:15:54.855Z,84.00
2023-01-04T11:16:54.864Z,92.00
2023-01-04T11:17:54.682Z,68.00
2023-01-04T11:18:54.622Z,60.00
2023-01-04T11:19:54.569Z,56.00
2023-01-04T11:20:54.503Z,48.00
2023-01-04T11:21:54.443Z,40.00
2023-01-04T11:22:54.445Z,40.00
2023-01-04T11:23:59.688Z,44.00
2023-01-04T11:25:33.051Z,44.00
2023-01-04T11:25:56.359Z,44.00
2023-01-04T11:26:54.147Z,44.00
2023-01-04T11:27:54.104Z,44.00
2023-01-04T11:28:54.033Z,36.00
2023-01-04T11:29:53.973Z,36.00
2023-01-04T11:30:53.918Z,36.00
2023-01-04T11:31:53.970Z,28.00
2023-01-04T11:32:53.796Z,24.00
2023-01-04T11:33:53.739Z,20.00
2023-01-04T11:34:53.689Z,20.00
2023-01-04T11:35:53.647Z,20.00
2023-01-04T11:36:53.565Z,20.00
2023-01-04T11:37:53.505Z,20.00
2023-01-04T11:38:53.447Z,20.00
2023-01-04T11:39:53.384Z,16.00
2023-01-04T11:40:53.326Z,16.00
2023-01-04T11:41:56.249Z,16.00
2023-01-04T11:42:53.214Z,16.00
2023-01-04T11:43:53.150Z,16.00
2023-01-04T11:44:53.089Z,12.00
2023-01-04T11:45:55.676Z,12.00
2023-01-04T11:46:52.972Z,16.00
2023-01-04T11:47:52.927Z,12.00
2023-01-04T11:48:52.866Z,12.00
2023-01-04T11:49:52.795Z,12.00
2023-01-04T11:50:52.737Z,12.00
2023-01-04T11:51:52.706Z,12.00
2023-01-04T11:52:52.619Z,12.00
2023-01-04T11:53:52.560Z,8.00
2023-01-04T11:54:52.500Z,8.00
2023-01-04T11:55:52.467Z,8.00
2023-01-04T11:56:52.386Z,8.00
2023-01-04T11:57:52.322Z,8.00
2023-01-04T11:58:52.266Z,8.00
2023-01-04T11:59:52.201Z,8.00
2023-01-04T12:00:52.146Z,12.00
2023-01-04T12:01:52.219Z,12.00
2023-01-04T12:03:01.103Z,12.00
2023-01-04T12:03:52.064Z,12.00
2023-01-04T12:04:51.910Z,8.00
2023-01-04T12:05:51.849Z,12.00
2023-01-04T12:06:51.797Z,12.00
2023-01-04T12:07:51.731Z,12.00
2023-01-04T12:08:51.672Z,12.00
2023-01-04T12:09:51.618Z,12.00
2023-01-04T12:10:51.560Z,12.00
2023-01-04T12:11:51.505Z,12.00
2023-01-04T12:12:51.445Z,12.00
2023-01-04T12:13:51.381Z,12.00
2023-01-04T12:14:51.321Z,12.00
2023-01-04T12:15:51.260Z,12.00
2023-01-04T12:16:51.203Z,12.00
2023-01-04T12:17:51.150Z,8.00
2023-01-04T12:18:51.089Z,8.00
2023-01-04T12:19:51.035Z,8.00
2023-01-04T12:20:50.971Z,8.00
2023-01-04T12:21:50.916Z,8.00
2023-01-04T12:22:50.853Z,12.00
2023-01-04T12:23:50.790Z,12.00
2023-01-04T12:24:55.286Z,16.00
2023-01-04T12:25:50.668Z,16.00
2023-01-04T12:26:50.619Z,12.00
2023-01-04T12:27:50.561Z,12.00
2023-01-04T12:28:50.495Z,12.00
2023-01-04T12:29:50.435Z,12.00
2023-01-04T12:30:50.377Z,12.00
2023-01-04T12:31:50.315Z,12.00
2023-01-04T12:32:50.267Z,12.00
2023-01-04T12:33:50.198Z,12.00
2023-01-04T12:34:50.147Z,12.00
2023-01-04T12:35:50.091Z,12.00
2023-01-04T12:36:50.040Z,12.00
2023-01-04T12:37:49.967Z,12.00
2023-01-04T12:38:49.914Z,12.00
2023-01-04T12:39:49.846Z,12.00
2023-01-04T12:40:49.917Z,12.00
2023-01-04T12:41:49.832Z,12.00
2023-01-04T12:42:49.695Z,12.00
2023-01-04T12:43:49.614Z,8.00
2023-01-04T12:44:49.553Z,12.00
2023-01-04T12:45:49.497Z,12.00
2023-01-04T12:46:49.447Z,12.00
2023-01-04T12:47:49.374Z,12.00
2023-01-04T12:48:49.325Z,12.00
2023-01-04T12:49:49.259Z,12.00
2023-01-04T12:50:59.290Z,12.00
2023-01-04T12:52:12.832Z,12.00
2023-01-04T12:53:49.039Z,8.00
2023-01-04T12:54:48.971Z,12.00
2023-01-04T12:55:48.910Z,8.00
2023-01-04T12:56:48.869Z,12.00
2023-01-04T12:57:48.795Z,8.00
2023-01-04T12:59:24.178Z,8.00
2023-01-04T12:59:48.673Z,12.00
2023-01-04T13:00:48.625Z,8.00
2023-01-04T13:01:48.666Z,8.00
2023-01-04T13:02:48.919Z,8.00
2023-01-04T13:03:48.877Z,12.00
2023-01-04T13:04:48.376Z,12.00
2023-01-04T13:05:57.308Z,12.00
2023-01-04T13:06:48.260Z,12.00
2023-01-04T13:07:48.217Z,8.00
2023-01-04T13:08:48.139Z,8.00
2023-01-04T13:09:48.558Z,8.00
2023-01-04T13:10:48.043Z,8.00
2023-01-04T13:11:47.969Z,12.00
2023-01-04T13:12:47.910Z,12.00
2023-01-04T13:13:47.874Z,12.00
2023-01-04T13:14:47.815Z,12.00